sensor_id;sensor_type;location;lat;lon;timestamp;P1;durP1;ratioP1;P2;durP2;ratioP2
5630;SDS011;2837;50.990;7.124;2023-09-08T05:00:24;150.40;;;10.30;;
5630;SDS011;2837;50.990;7.124;2023-09-08T05:02:51;148.27;;;9.40;;
5630;SDS011;2837;50.990;7.124;2023-09-08T05:05:16;148.80;;;10.53;;
5630;SDS011;2837;50.990;7.124;2023-09-08T05:07:42;148.27;;;10.07;;
5630;SDS011;2837;50.990;7.124;2023-09-08T05:10:09;151.07;;;11.00;;
5630;SDS011;2837;50.990;7.124;2023-09-08T05:12:35;147.50;;;9.63;;
5630;SDS011;2837;50.990;7.124;2023-09-08T05:15:01;148.50;;;10.60;;
5630;SDS011;2837;50.990;7.124;2023-09-08T05:17:31;149.83;;;11.20;;
5630;SDS011;2837;50.990;7.124;2023-09-08T05:19:58;149.60;;;10.50;;
5630;SDS011;2837;50.990;7.124;2023-09-08T05:22:24;149.27;;;10.60;;
5630;SDS011;2837;50.990;7.124;2023-09-08T05:24:50;148.57;;;10.20;;
5630;SDS011;2837;50.990;7.124;2023-09-08T05:27:16;149.87;;;10.97;;
5630;SDS011;2837;50.990;7.124;2023-09-08T05:29:42;148.63;;;10.10;;
5630;SDS011;2837;50.990;7.124;2023-09-08T05:32:08;148.57;;;9.87;;
5630;SDS011;2837;50.990;7.124;2023-09-08T05:34:34;149.27;;;10.47;;
5630;SDS011;2837;50.990;7.124;2023-09-08T05:37:00;149.60;;;10.33;;
5630;SDS011;2837;50.990;7.124;2023-09-08T05:39:26;150.17;;;10.50;;
5630;SDS011;2837;50.990;7.124;2023-09-08T05:41:52;149.07;;;10.27;;
5630;SDS011;2837;50.990;7.124;2023-09-08T05:44:18;150.20;;;11.30;;
5630;SDS011;2837;50.990;7.124;2023-09-08T05:46:44;149.20;;;10.50;;
5630;SDS011;2837;50.990;7.124;2023-09-08T05:49:10;150.70;;;10.30;;
5630;SDS011;2837;50.990;7.124;2023-09-08T05:51:36;151.40;;;10.33;;
5630;SDS011;2837;50.990;7.124;2023-09-08T05:54:02;149.10;;;10.40;;
5630;SDS011;2837;50.990;7.124;2023-09-08T05:56:31;151.50;;;10.50;;
5630;SDS011;2837;50.990;7.124;2023-09-08T05:58:58;149.77;;;10.90;;
5630;SDS011;2837;50.990;7.124;2023-09-08T06:01:25;149.43;;;10.23;;
5630;SDS011;2837;50.990;7.124;2023-09-08T06:03:51;150.57;;;10.77;;
5630;SDS011;2837;50.990;7.124;2023-09-08T06:06:19;149.20;;;10.40;;
5630;SDS011;2837;50.990;7.124;2023-09-08T06:08:45;149.90;;;10.30;;
5630;SDS011;2837;50.990;7.124;2023-09-08T06:11:11;149.10;;;10.17;;
5630;SDS011;2837;50.990;7.124;2023-09-08T06:13:37;150.37;;;9.90;;
5630;SDS011;2837;50.990;7.124;2023-09-08T06:16:02;150.57;;;11.07;;
5630;SDS011;2837;50.990;7.124;2023-09-08T06:18:28;149.47;;;11.40;;
5630;SDS011;2837;50.990;7.124;2023-09-08T06:20:55;150.00;;;11.20;;
5630;SDS011;2837;50.990;7.124;2023-09-08T06:23:21;153.97;;;10.87;;
5630;SDS011;2837;50.990;7.124;2023-09-08T06:25:48;149.47;;;10.43;;
5630;SDS011;2837;50.990;7.124;2023-09-08T06:28:14;150.27;;;11.17;;
5630;SDS011;2837;50.990;7.124;2023-09-08T06:30:40;148.97;;;10.77;;
5630;SDS011;2837;50.990;7.124;2023-09-08T06:33:07;152.47;;;10.30;;
5630;SDS011;2837;50.990;7.124;2023-09-08T06:35:33;152.60;;;10.27;;
5630;SDS011;2837;50.990;7.124;2023-09-08T06:37:59;149.30;;;10.10;;
5630;SDS011;2837;50.990;7.124;2023-09-08T06:40:25;149.20;;;10.53;;
5630;SDS011;2837;50.990;7.124;2023-09-08T06:42:51;148.20;;;10.10;;
5630;SDS011;2837;50.990;7.124;2023-09-08T06:45:17;149.50;;;10.60;;
5630;SDS011;2837;50.990;7.124;2023-09-08T06:47:44;151.80;;;11.50;;
5630;SDS011;2837;50.990;7.124;2023-09-08T06:50:09;152.67;;;10.30;;
5630;SDS011;2837;50.990;7.124;2023-09-08T06:52:35;150.20;;;11.23;;
5630;SDS011;2837;50.990;7.124;2023-09-08T06:55:01;148.37;;;9.83;;
5630;SDS011;2837;50.990;7.124;2023-09-08T06:57:27;149.10;;;10.90;;
5630;SDS011;2837;50.990;7.124;2023-09-08T06:59:53;150.87;;;10.17;;
5630;SDS011;2837;50.990;7.124;2023-09-08T07:02:19;148.10;;;10.10;;
5630;SDS011;2837;50.990;7.124;2023-09-08T07:04:45;151.07;;;10.80;;
5630;SDS011;2837;50.990;7.124;2023-09-08T07:07:11;148.67;;;9.67;;
5630;SDS011;2837;50.990;7.124;2023-09-08T07:09:37;148.27;;;9.83;;
5630;SDS011;2837;50.990;7.124;2023-09-08T07:12:03;148.57;;;10.20;;
5630;SDS011;2837;50.990;7.124;2023-09-08T07:14:30;149.87;;;10.63;;
5630;SDS011;2837;50.990;7.124;2023-09-08T07:16:56;148.90;;;9.90;;
5630;SDS011;2837;50.990;7.124;2023-09-08T07:19:22;149.87;;;11.07;;
5630;SDS011;2837;50.990;7.124;2023-09-08T07:21:49;150.80;;;10.97;;
5630;SDS011;2837;50.990;7.124;2023-09-08T07:24:15;148.50;;;10.57;;
5630;SDS011;2837;50.990;7.124;2023-09-08T07:26:41;149.10;;;10.07;;
5630;SDS011;2837;50.990;7.124;2023-09-08T07:29:07;148.37;;;9.90;;
5630;SDS011;2837;50.990;7.124;2023-09-08T07:31:33;148.00;;;10.13;;
5630;SDS011;2837;50.990;7.124;2023-09-08T07:33:59;149.77;;;10.80;;
5630;SDS011;2837;50.990;7.124;2023-09-08T07:36:25;148.43;;;10.03;;
5630;SDS011;2837;50.990;7.124;2023-09-08T07:38:51;147.80;;;9.80;;
5630;SDS011;2837;50.990;7.124;2023-09-08T07:41:17;149.30;;;11.07;;
5630;SDS011;2837;50.990;7.124;2023-09-08T07:43:43;147.87;;;9.70;;
5630;SDS011;2837;50.990;7.124;2023-09-08T07:46:10;149.30;;;10.73;;
5630;SDS011;2837;50.990;7.124;2023-09-08T07:48:36;153.60;;;9.40;;
5630;SDS011;2837;50.990;7.124;2023-09-08T07:51:02;147.53;;;9.67;;
5630;SDS011;2837;50.990;7.124;2023-09-08T07:53:28;147.77;;;10.30;;
5630;SDS011;2837;50.990;7.124;2023-09-08T07:55:54;146.90;;;9.20;;
5630;SDS011;2837;50.990;7.124;2023-09-08T07:58:21;154.07;;;10.93;;
5630;SDS011;2837;50.990;7.124;2023-09-08T08:00:47;147.87;;;10.13;;
5630;SDS011;2837;50.990;7.124;2023-09-08T08:03:13;148.17;;;10.03;;
5630;SDS011;2837;50.990;7.124;2023-09-08T08:05:39;147.97;;;9.60;;
5630;SDS011;2837;50.990;7.124;2023-09-08T08:08:05;149.60;;;9.50;;
5630;SDS011;2837;50.990;7.124;2023-09-08T08:10:32;149.50;;;10.30;;
5630;SDS011;2837;50.990;7.124;2023-09-08T08:12:58;147.40;;;9.90;;
5630;SDS011;2837;50.990;7.124;2023-09-08T08:15:33;148.37;;;10.13;;
5630;SDS011;2837;50.990;7.124;2023-09-08T08:18:04;147.47;;;9.50;;
5630;SDS011;2837;50.990;7.124;2023-09-08T08:20:30;152.10;;;10.70;;
5630;SDS011;2837;50.990;7.124;2023-09-08T08:22:59;147.97;;;10.30;;
5630;SDS011;2837;50.990;7.124;2023-09-08T08:25:25;151.10;;;9.50;;
5630;SDS011;2837;50.990;7.124;2023-09-08T08:27:51;147.77;;;10.37;;
5630;SDS011;2837;50.990;7.124;2023-09-08T08:30:17;147.10;;;10.00;;
5630;SDS011;2837;50.990;7.124;2023-09-08T08:32:43;147.40;;;10.10;;
5630;SDS011;2837;50.990;7.124;2023-09-08T08:35:08;149.60;;;9.30;;
5630;SDS011;2837;50.990;7.124;2023-09-08T08:37:35;159.30;;;11.32;;
5630;SDS011;2837;50.990;7.124;2023-09-08T08:40:01;146.33;;;9.03;;
5630;SDS011;2837;50.990;7.124;2023-09-08T08:42:31;149.57;;;9.00;;
5630;SDS011;2837;50.990;7.124;2023-09-08T08:44:58;148.67;;;9.83;;
5630;SDS011;2837;50.990;7.124;2023-09-08T08:47:24;145.93;;;8.73;;
5630;SDS011;2837;50.990;7.124;2023-09-08T08:49:50;146.93;;;10.17;;
5630;SDS011;2837;50.990;7.124;2023-09-08T08:52:16;146.73;;;9.30;;
5630;SDS011;2837;50.990;7.124;2023-09-08T08:54:44;146.23;;;8.57;;
5630;SDS011;2837;50.990;7.124;2023-09-08T08:57:11;146.60;;;9.70;;
5630;SDS011;2837;50.990;7.124;2023-09-08T08:59:37;146.20;;;9.00;;
5630;SDS011;2837;50.990;7.124;2023-09-08T09:02:03;146.00;;;9.10;;
5630;SDS011;2837;50.990;7.124;2023-09-08T09:04:29;148.53;;;10.40;;
5630;SDS011;2837;50.990;7.124;2023-09-08T09:06:56;147.07;;;10.13;;
5630;SDS011;2837;50.990;7.124;2023-09-08T09:09:23;148.07;;;10.27;;
5630;SDS011;2837;50.990;7.124;2023-09-08T09:11:49;145.83;;;9.50;;
5630;SDS011;2837;50.990;7.124;2023-09-08T09:14:15;145.70;;;8.90;;
5630;SDS011;2837;50.990;7.124;2023-09-08T09:16:42;146.03;;;10.20;;
5630;SDS011;2837;50.990;7.124;2023-09-08T09:19:09;147.13;;;10.40;;
5630;SDS011;2837;50.990;7.124;2023-09-08T09:21:45;154.77;;;10.43;;
5630;SDS011;2837;50.990;7.124;2023-09-08T09:24:28;147.87;;;10.07;;
5630;SDS011;2837;50.990;7.124;2023-09-08T09:26:55;147.50;;;9.97;;
5630;SDS011;2837;50.990;7.124;2023-09-08T09:29:21;144.97;;;9.10;;
5630;SDS011;2837;50.990;7.124;2023-09-08T09:31:51;151.47;;;9.30;;
5630;SDS011;2837;50.990;7.124;2023-09-08T09:34:28;145.47;;;9.47;;
5630;SDS011;2837;50.990;7.124;2023-09-08T09:36:55;148.30;;;9.47;;
5630;SDS011;2837;50.990;7.124;2023-09-08T09:39:22;146.43;;;9.20;;
5630;SDS011;2837;50.990;7.124;2023-09-08T09:41:49;146.10;;;10.03;;
5630;SDS011;2837;50.990;7.124;2023-09-08T09:44:21;147.10;;;9.83;;
5630;SDS011;2837;50.990;7.124;2023-09-08T09:46:48;144.87;;;8.77;;
5630;SDS011;2837;50.990;7.124;2023-09-08T09:49:15;144.97;;;9.70;;
5630;SDS011;2837;50.990;7.124;2023-09-08T09:51:45;145.57;;;8.93;;
5630;SDS011;2837;50.990;7.124;2023-09-08T09:54:12;144.97;;;8.70;;
5630;SDS011;2837;50.990;7.124;2023-09-08T09:56:39;149.40;;;10.17;;
5630;SDS011;2837;50.990;7.124;2023-09-08T09:59:10;145.77;;;9.47;;
5630;SDS011;2837;50.990;7.124;2023-09-08T10:01:37;145.37;;;9.03;;
5630;SDS011;2837;50.990;7.124;2023-09-08T10:04:04;150.27;;;9.27;;
5630;SDS011;2837;50.990;7.124;2023-09-08T10:06:31;144.77;;;9.00;;
5630;SDS011;2837;50.990;7.124;2023-09-08T10:08:58;145.47;;;9.20;;
5630;SDS011;2837;50.990;7.124;2023-09-08T10:11:27;146.30;;;9.90;;
5630;SDS011;2837;50.990;7.124;2023-09-08T10:13:54;155.35;;;8.77;;
5630;SDS011;2837;50.990;7.124;2023-09-08T10:16:21;155.20;;;10.00;;
5630;SDS011;2837;50.990;7.124;2023-09-08T10:18:47;155.38;;;9.38;;
5630;SDS011;2837;50.990;7.124;2023-09-08T10:21:14;153.32;;;8.98;;
5630;SDS011;2837;50.990;7.124;2023-09-08T10:23:49;144.83;;;9.10;;
5630;SDS011;2837;50.990;7.124;2023-09-08T10:26:19;144.27;;;9.00;;
5630;SDS011;2837;50.990;7.124;2023-09-08T10:28:47;146.27;;;8.70;;
5630;SDS011;2837;50.990;7.124;2023-09-08T10:31:13;144.87;;;8.30;;
5630;SDS011;2837;50.990;7.124;2023-09-08T10:33:40;145.17;;;8.47;;
5630;SDS011;2837;50.990;7.124;2023-09-08T10:36:07;145.20;;;8.53;;
5630;SDS011;2837;50.990;7.124;2023-09-08T10:38:34;145.27;;;9.13;;
5630;SDS011;2837;50.990;7.124;2023-09-08T10:43:57;144.77;;;8.97;;
5630;SDS011;2837;50.990;7.124;2023-09-08T10:46:28;144.47;;;9.13;;
5630;SDS011;2837;50.990;7.124;2023-09-08T10:48:54;144.87;;;8.17;;
5630;SDS011;2837;50.990;7.124;2023-09-08T10:51:25;144.00;;;8.77;;
5630;SDS011;2837;50.990;7.124;2023-09-08T10:53:51;145.27;;;8.90;;
5630;SDS011;2837;50.990;7.124;2023-09-08T10:56:17;145.77;;;9.47;;
5630;SDS011;2837;50.990;7.124;2023-09-08T10:58:49;144.97;;;9.10;;
5630;SDS011;2837;50.990;7.124;2023-09-08T11:01:17;145.33;;;8.90;;
5630;SDS011;2837;50.990;7.124;2023-09-08T11:03:45;150.77;;;9.57;;
5630;SDS011;2837;50.990;7.124;2023-09-08T11:06:14;147.60;;;9.17;;
5630;SDS011;2837;50.990;7.124;2023-09-08T11:08:42;144.37;;;9.10;;
5630;SDS011;2837;50.990;7.124;2023-09-08T11:11:12;144.10;;;8.50;;
5630;SDS011;2837;50.990;7.124;2023-09-08T11:13:38;143.70;;;8.70;;
5630;SDS011;2837;50.990;7.124;2023-09-08T11:16:10;145.17;;;9.23;;
5630;SDS011;2837;50.990;7.124;2023-09-08T11:18:36;146.17;;;9.47;;
5630;SDS011;2837;50.990;7.124;2023-09-08T11:21:03;144.70;;;9.30;;
5630;SDS011;2837;50.990;7.124;2023-09-08T11:23:33;142.73;;;8.30;;
5630;SDS011;2837;50.990;7.124;2023-09-08T11:25:59;145.63;;;9.50;;
5630;SDS011;2837;50.990;7.124;2023-09-08T11:28:26;143.30;;;8.40;;
5630;SDS011;2837;50.990;7.124;2023-09-08T11:33:22;145.20;;;8.77;;
5630;SDS011;2837;50.990;7.124;2023-09-08T11:35:52;144.90;;;9.10;;
5630;SDS011;2837;50.990;7.124;2023-09-08T11:38:18;145.70;;;9.47;;
5630;SDS011;2837;50.990;7.124;2023-09-08T11:40:49;144.57;;;8.83;;
5630;SDS011;2837;50.990;7.124;2023-09-08T11:43:15;144.30;;;8.33;;
5630;SDS011;2837;50.990;7.124;2023-09-08T11:45:41;143.27;;;8.87;;
5630;SDS011;2837;50.990;7.124;2023-09-08T11:48:08;142.93;;;7.83;;
5630;SDS011;2837;50.990;7.124;2023-09-08T11:50:34;143.60;;;7.90;;
5630;SDS011;2837;50.990;7.124;2023-09-08T11:53:00;144.03;;;8.10;;
5630;SDS011;2837;50.990;7.124;2023-09-08T11:55:27;144.80;;;9.23;;
5630;SDS011;2837;50.990;7.124;2023-09-08T11:57:53;143.90;;;8.23;;
5630;SDS011;2837;50.990;7.124;2023-09-08T12:00:22;143.17;;;8.60;;
5630;SDS011;2837;50.990;7.124;2023-09-08T12:02:49;147.37;;;8.03;;
5630;SDS011;2837;50.990;7.124;2023-09-08T12:05:27;142.97;;;8.33;;
5630;SDS011;2837;50.990;7.124;2023-09-08T12:07:54;144.07;;;8.90;;
5630;SDS011;2837;50.990;7.124;2023-09-08T12:10:21;144.10;;;8.90;;
5630;SDS011;2837;50.990;7.124;2023-09-08T12:12:51;143.37;;;9.20;;
5630;SDS011;2837;50.990;7.124;2023-09-08T12:15:35;146.47;;;8.23;;
5630;SDS011;2837;50.990;7.124;2023-09-08T12:18:06;145.00;;;9.10;;
5630;SDS011;2837;50.990;7.124;2023-09-08T12:20:36;141.10;;;8.03;;
5630;SDS011;2837;50.990;7.124;2023-09-08T12:23:03;143.03;;;8.87;;
5630;SDS011;2837;50.990;7.124;2023-09-08T12:25:32;143.77;;;8.37;;
5630;SDS011;2837;50.990;7.124;2023-09-08T12:27:59;143.77;;;8.17;;
5630;SDS011;2837;50.990;7.124;2023-09-08T12:30:26;142.90;;;8.13;;
5630;SDS011;2837;50.990;7.124;2023-09-08T12:32:57;143.57;;;8.70;;
5630;SDS011;2837;50.990;7.124;2023-09-08T12:35:24;144.00;;;8.30;;
5630;SDS011;2837;50.990;7.124;2023-09-08T12:40:24;143.67;;;8.30;;
5630;SDS011;2837;50.990;7.124;2023-09-08T12:42:51;142.60;;;8.70;;
5630;SDS011;2837;50.990;7.124;2023-09-08T12:45:17;143.37;;;9.27;;
5630;SDS011;2837;50.990;7.124;2023-09-08T12:47:43;144.27;;;8.90;;
5630;SDS011;2837;50.990;7.124;2023-09-08T12:50:09;142.80;;;8.40;;
5630;SDS011;2837;50.990;7.124;2023-09-08T12:52:35;143.27;;;9.07;;
5630;SDS011;2837;50.990;7.124;2023-09-08T12:55:01;143.03;;;8.10;;
5630;SDS011;2837;50.990;7.124;2023-09-08T12:57:27;153.00;;;9.23;;
5630;SDS011;2837;50.990;7.124;2023-09-08T12:59:54;152.65;;;8.80;;
5630;SDS011;2837;50.990;7.124;2023-09-08T13:02:20;153.25;;;8.60;;
5630;SDS011;2837;50.990;7.124;2023-09-08T13:04:46;153.98;;;10.07;;
5630;SDS011;2837;50.990;7.124;2023-09-08T13:07:14;154.73;;;8.40;;
5630;SDS011;2837;50.990;7.124;2023-09-08T13:09:40;153.57;;;10.05;;
5630;SDS011;2837;50.990;7.124;2023-09-08T13:12:05;151.60;;;8.83;;
5630;SDS011;2837;50.990;7.124;2023-09-08T13:14:31;152.85;;;9.32;;
5630;SDS011;2837;50.990;7.124;2023-09-08T13:16:57;150.90;;;8.20;;
5630;SDS011;2837;50.990;7.124;2023-09-08T13:19:23;150.60;;;8.35;;
5630;SDS011;2837;50.990;7.124;2023-09-08T13:21:48;153.90;;;7.90;;
5630;SDS011;2837;50.990;7.124;2023-09-08T13:24:14;151.03;;;8.83;;
5630;SDS011;2837;50.990;7.124;2023-09-08T13:26:39;154.63;;;8.50;;
5630;SDS011;2837;50.990;7.124;2023-09-08T13:29:05;151.40;;;8.40;;
5630;SDS011;2837;50.990;7.124;2023-09-08T13:31:31;151.07;;;8.90;;
5630;SDS011;2837;50.990;7.124;2023-09-08T13:33:57;142.57;;;8.77;;
5630;SDS011;2837;50.990;7.124;2023-09-08T13:36:22;143.07;;;8.67;;
5630;SDS011;2837;50.990;7.124;2023-09-08T13:38:48;142.20;;;8.23;;
5630;SDS011;2837;50.990;7.124;2023-09-08T13:41:14;146.80;;;8.10;;
5630;SDS011;2837;50.990;7.124;2023-09-08T13:43:40;143.23;;;9.07;;
5630;SDS011;2837;50.990;7.124;2023-09-08T13:46:06;141.90;;;7.53;;
5630;SDS011;2837;50.990;7.124;2023-09-08T13:48:32;143.97;;;9.53;;
5630;SDS011;2837;50.990;7.124;2023-09-08T13:51:04;143.47;;;9.50;;
5630;SDS011;2837;50.990;7.124;2023-09-08T13:53:30;143.47;;;9.40;;
5630;SDS011;2837;50.990;7.124;2023-09-08T13:55:56;143.27;;;8.93;;
5630;SDS011;2837;50.990;7.124;2023-09-08T13:58:22;143.80;;;9.00;;
5630;SDS011;2837;50.990;7.124;2023-09-08T14:00:48;143.13;;;9.13;;
5630;SDS011;2837;50.990;7.124;2023-09-08T14:03:14;142.47;;;7.47;;
5630;SDS011;2837;50.990;7.124;2023-09-08T14:05:41;143.60;;;8.70;;
5630;SDS011;2837;50.990;7.124;2023-09-08T14:08:07;143.70;;;9.03;;
5630;SDS011;2837;50.990;7.124;2023-09-08T14:10:33;143.47;;;8.70;;
5630;SDS011;2837;50.990;7.124;2023-09-08T14:12:59;143.63;;;9.30;;
5630;SDS011;2837;50.990;7.124;2023-09-08T14:15:25;143.00;;;8.50;;
5630;SDS011;2837;50.990;7.124;2023-09-08T14:17:51;143.07;;;9.07;;
5630;SDS011;2837;50.990;7.124;2023-09-08T14:20:18;143.37;;;8.73;;
5630;SDS011;2837;50.990;7.124;2023-09-08T14:22:44;143.10;;;8.67;;
5630;SDS011;2837;50.990;7.124;2023-09-08T14:25:10;143.50;;;8.87;;
5630;SDS011;2837;50.990;7.124;2023-09-08T14:27:36;143.43;;;8.90;;
5630;SDS011;2837;50.990;7.124;2023-09-08T14:30:02;141.87;;;8.47;;
5630;SDS011;2837;50.990;7.124;2023-09-08T14:32:30;144.93;;;9.30;;
5630;SDS011;2837;50.990;7.124;2023-09-08T14:34:55;143.60;;;9.47;;
5630;SDS011;2837;50.990;7.124;2023-09-08T14:37:22;143.90;;;8.80;;
5630;SDS011;2837;50.990;7.124;2023-09-08T14:39:47;144.67;;;9.30;;
5630;SDS011;2837;50.990;7.124;2023-09-08T14:42:13;144.53;;;9.67;;
5630;SDS011;2837;50.990;7.124;2023-09-08T14:44:40;144.80;;;8.90;;
5630;SDS011;2837;50.990;7.124;2023-09-08T14:47:06;147.00;;;9.33;;
5630;SDS011;2837;50.990;7.124;2023-09-08T14:49:32;142.83;;;8.77;;
5630;SDS011;2837;50.990;7.124;2023-09-08T14:51:58;143.27;;;8.63;;
5630;SDS011;2837;50.990;7.124;2023-09-08T14:54:24;143.43;;;9.30;;
5630;SDS011;2837;50.990;7.124;2023-09-08T14:56:51;144.27;;;9.10;;
5630;SDS011;2837;50.990;7.124;2023-09-08T14:59:17;143.67;;;9.30;;
5630;SDS011;2837;50.990;7.124;2023-09-08T15:01:43;144.27;;;10.17;;
5630;SDS011;2837;50.990;7.124;2023-09-08T15:04:10;142.30;;;8.27;;
5630;SDS011;2837;50.990;7.124;2023-09-08T15:06:36;143.27;;;9.23;;
5630;SDS011;2837;50.990;7.124;2023-09-08T15:09:02;143.47;;;9.10;;
5630;SDS011;2837;50.990;7.124;2023-09-08T15:11:28;142.73;;;8.30;;
5630;SDS011;2837;50.990;7.124;2023-09-08T15:13:54;143.67;;;9.20;;
5630;SDS011;2837;50.990;7.124;2023-09-08T15:16:20;143.60;;;9.20;;
5630;SDS011;2837;50.990;7.124;2023-09-08T15:18:47;142.97;;;8.80;;
5630;SDS011;2837;50.990;7.124;2023-09-08T15:21:12;142.20;;;9.07;;
5630;SDS011;2837;50.990;7.124;2023-09-08T15:23:38;141.90;;;7.80;;
5630;SDS011;2837;50.990;7.124;2023-09-08T15:26:04;143.47;;;8.43;;
5630;SDS011;2837;50.990;7.124;2023-09-08T15:28:30;145.57;;;9.30;;
5630;SDS011;2837;50.990;7.124;2023-09-08T15:30:56;144.57;;;9.63;;
5630;SDS011;2837;50.990;7.124;2023-09-08T15:33:22;143.90;;;9.33;;
5630;SDS011;2837;50.990;7.124;2023-09-08T15:35:48;144.43;;;8.80;;
5630;SDS011;2837;50.990;7.124;2023-09-08T15:38:15;144.90;;;9.30;;
5630;SDS011;2837;50.990;7.124;2023-09-08T15:40:54;146.20;;;9.57;;
5630;SDS011;2837;50.990;7.124;2023-09-08T15:43:31;144.80;;;9.30;;
5630;SDS011;2837;50.990;7.124;2023-09-08T15:45:56;143.30;;;8.93;;
5630;SDS011;2837;50.990;7.124;2023-09-08T15:48:22;143.20;;;9.20;;
5630;SDS011;2837;50.990;7.124;2023-09-08T15:50:48;143.07;;;9.53;;
5630;SDS011;2837;50.990;7.124;2023-09-08T15:53:14;143.20;;;9.10;;
5630;SDS011;2837;50.990;7.124;2023-09-08T15:55:40;141.77;;;8.50;;
5630;SDS011;2837;50.990;7.124;2023-09-08T15:58:06;142.50;;;8.73;;
5630;SDS011;2837;50.990;7.124;2023-09-08T16:00:31;142.60;;;8.77;;
5630;SDS011;2837;50.990;7.124;2023-09-08T16:02:57;143.87;;;9.43;;
5630;SDS011;2837;50.990;7.124;2023-09-08T16:05:23;154.77;;;10.50;;
5630;SDS011;2837;50.990;7.124;2023-09-08T16:07:49;153.77;;;9.33;;
5630;SDS011;2837;50.990;7.124;2023-09-08T16:10:14;152.73;;;8.93;;
5630;SDS011;2837;50.990;7.124;2023-09-08T16:12:40;155.45;;;10.07;;
5630;SDS011;2837;50.990;7.124;2023-09-08T16:15:06;151.93;;;8.90;;
5630;SDS011;2837;50.990;7.124;2023-09-08T16:17:32;154.45;;;9.25;;
5630;SDS011;2837;50.990;7.124;2023-09-08T16:19:58;154.02;;;9.32;;
5630;SDS011;2837;50.990;7.124;2023-09-08T16:22:24;150.53;;;8.43;;
5630;SDS011;2837;50.990;7.124;2023-09-08T16:24:50;152.05;;;8.85;;
5630;SDS011;2837;50.990;7.124;2023-09-08T16:27:16;152.73;;;10.60;;
5630;SDS011;2837;50.990;7.124;2023-09-08T16:29:41;150.70;;;8.60;;
5630;SDS011;2837;50.990;7.124;2023-09-08T16:32:11;152.00;;;10.13;;
5630;SDS011;2837;50.990;7.124;2023-09-08T16:34:36;152.15;;;9.57;;
5630;SDS011;2837;50.990;7.124;2023-09-08T16:37:02;153.70;;;9.57;;
5630;SDS011;2837;50.990;7.124;2023-09-08T16:39:29;153.50;;;10.55;;
5630;SDS011;2837;50.990;7.124;2023-09-08T16:41:55;142.67;;;7.63;;
5630;SDS011;2837;50.990;7.124;2023-09-08T16:44:21;144.57;;;8.50;;
5630;SDS011;2837;50.990;7.124;2023-09-08T16:46:46;141.83;;;8.40;;
5630;SDS011;2837;50.990;7.124;2023-09-08T16:49:12;143.43;;;9.50;;
5630;SDS011;2837;50.990;7.124;2023-09-08T16:51:40;143.97;;;9.23;;
5630;SDS011;2837;50.990;7.124;2023-09-08T16:54:05;144.77;;;8.80;;
5630;SDS011;2837;50.990;7.124;2023-09-08T16:56:32;143.67;;;9.33;;
5630;SDS011;2837;50.990;7.124;2023-09-08T16:58:58;142.90;;;8.90;;
5630;SDS011;2837;50.990;7.124;2023-09-08T17:01:24;142.47;;;9.33;;
5630;SDS011;2837;50.990;7.124;2023-09-08T17:03:50;143.47;;;8.60;;
5630;SDS011;2837;50.990;7.124;2023-09-08T17:06:16;143.37;;;9.27;;
5630;SDS011;2837;50.990;7.124;2023-09-08T17:08:42;147.53;;;9.13;;
5630;SDS011;2837;50.990;7.124;2023-09-08T17:11:08;144.10;;;9.90;;
5630;SDS011;2837;50.990;7.124;2023-09-08T17:13:35;144.10;;;9.07;;
5630;SDS011;2837;50.990;7.124;2023-09-08T17:16:01;143.20;;;8.63;;
5630;SDS011;2837;50.990;7.124;2023-09-08T17:18:27;145.07;;;9.00;;
5630;SDS011;2837;50.990;7.124;2023-09-08T17:20:54;144.60;;;9.40;;
5630;SDS011;2837;50.990;7.124;2023-09-08T17:23:23;145.50;;;9.40;;
5630;SDS011;2837;50.990;7.124;2023-09-08T17:25:49;145.40;;;9.17;;
5630;SDS011;2837;50.990;7.124;2023-09-08T17:28:16;143.17;;;9.43;;
5630;SDS011;2837;50.990;7.124;2023-09-08T17:30:42;145.77;;;9.87;;
5630;SDS011;2837;50.990;7.124;2023-09-08T17:33:08;143.90;;;9.40;;
5630;SDS011;2837;50.990;7.124;2023-09-08T17:35:37;145.03;;;9.60;;
5630;SDS011;2837;50.990;7.124;2023-09-08T17:38:03;144.67;;;9.07;;
5630;SDS011;2837;50.990;7.124;2023-09-08T17:40:29;145.33;;;9.10;;
5630;SDS011;2837;50.990;7.124;2023-09-08T17:42:55;147.93;;;10.13;;
5630;SDS011;2837;50.990;7.124;2023-09-08T17:45:21;145.60;;;9.87;;
5630;SDS011;2837;50.990;7.124;2023-09-08T17:47:47;145.53;;;9.03;;
5630;SDS011;2837;50.990;7.124;2023-09-08T17:50:12;143.57;;;9.47;;
5630;SDS011;2837;50.990;7.124;2023-09-08T17:52:38;145.10;;;10.10;;
5630;SDS011;2837;50.990;7.124;2023-09-08T17:55:04;144.87;;;9.70;;
5630;SDS011;2837;50.990;7.124;2023-09-08T17:57:30;147.50;;;10.23;;
5630;SDS011;2837;50.990;7.124;2023-09-08T17:59:56;145.10;;;9.47;;
5630;SDS011;2837;50.990;7.124;2023-09-08T18:02:22;146.00;;;10.67;;
5630;SDS011;2837;50.990;7.124;2023-09-08T18:04:49;144.50;;;9.80;;
5630;SDS011;2837;50.990;7.124;2023-09-08T18:07:15;144.67;;;8.90;;
5630;SDS011;2837;50.990;7.124;2023-09-08T18:09:41;147.43;;;10.20;;
5630;SDS011;2837;50.990;7.124;2023-09-08T18:12:07;145.97;;;9.97;;
5630;SDS011;2837;50.990;7.124;2023-09-08T18:14:33;144.37;;;9.37;;
5630;SDS011;2837;50.990;7.124;2023-09-08T18:16:59;150.57;;;10.13;;
5630;SDS011;2837;50.990;7.124;2023-09-08T18:19:25;145.13;;;9.83;;
5630;SDS011;2837;50.990;7.124;2023-09-08T18:21:51;144.63;;;9.70;;
5630;SDS011;2837;50.990;7.124;2023-09-08T18:24:17;143.83;;;8.63;;
5630;SDS011;2837;50.990;7.124;2023-09-08T18:26:43;148.00;;;10.30;;
5630;SDS011;2837;50.990;7.124;2023-09-08T18:29:08;144.87;;;9.67;;
5630;SDS011;2837;50.990;7.124;2023-09-08T18:31:34;145.37;;;10.03;;
5630;SDS011;2837;50.990;7.124;2023-09-08T18:34:00;148.90;;;9.40;;
5630;SDS011;2837;50.990;7.124;2023-09-08T18:36:27;146.37;;;10.23;;
5630;SDS011;2837;50.990;7.124;2023-09-08T18:38:53;145.87;;;9.67;;
5630;SDS011;2837;50.990;7.124;2023-09-08T18:41:18;144.63;;;9.83;;
5630;SDS011;2837;50.990;7.124;2023-09-08T18:43:44;145.00;;;9.83;;
5630;SDS011;2837;50.990;7.124;2023-09-08T18:46:10;144.40;;;9.53;;
5630;SDS011;2837;50.990;7.124;2023-09-08T18:48:36;145.03;;;9.10;;
5630;SDS011;2837;50.990;7.124;2023-09-08T18:51:02;144.40;;;9.10;;
5630;SDS011;2837;50.990;7.124;2023-09-08T18:53:28;146.83;;;9.40;;
5630;SDS011;2837;50.990;7.124;2023-09-08T18:55:54;146.10;;;9.77;;
5630;SDS011;2837;50.990;7.124;2023-09-08T18:58:20;146.80;;;9.77;;
5630;SDS011;2837;50.990;7.124;2023-09-08T19:00:48;146.47;;;10.00;;
5630;SDS011;2837;50.990;7.124;2023-09-08T19:03:14;146.67;;;10.10;;
5630;SDS011;2837;50.990;7.124;2023-09-08T19:05:40;147.67;;;10.00;;
5630;SDS011;2837;50.990;7.124;2023-09-08T19:08:06;147.00;;;10.10;;
5630;SDS011;2837;50.990;7.124;2023-09-08T19:10:33;146.53;;;9.33;;
5630;SDS011;2837;50.990;7.124;2023-09-08T19:12:58;146.00;;;10.03;;
5630;SDS011;2837;50.990;7.124;2023-09-08T19:15:24;146.37;;;9.37;;
5630;SDS011;2837;50.990;7.124;2023-09-08T19:17:50;144.50;;;9.07;;
5630;SDS011;2837;50.990;7.124;2023-09-08T19:20:16;146.13;;;9.90;;
5630;SDS011;2837;50.990;7.124;2023-09-08T19:22:42;146.17;;;9.60;;
5630;SDS011;2837;50.990;7.124;2023-09-08T19:25:08;145.80;;;9.83;;
5630;SDS011;2837;50.990;7.124;2023-09-08T19:27:34;145.27;;;9.60;;
5630;SDS011;2837;50.990;7.124;2023-09-08T19:30:00;147.87;;;10.03;;
5630;SDS011;2837;50.990;7.124;2023-09-08T19:32:26;150.97;;;9.93;;
5630;SDS011;2837;50.990;7.124;2023-09-08T19:34:53;145.27;;;9.10;;
5630;SDS011;2837;50.990;7.124;2023-09-08T19:37:19;149.00;;;10.13;;
5630;SDS011;2837;50.990;7.124;2023-09-08T19:39:45;147.87;;;9.80;;
5630;SDS011;2837;50.990;7.124;2023-09-08T19:42:11;146.57;;;10.20;;
5630;SDS011;2837;50.990;7.124;2023-09-08T19:44:40;149.40;;;9.80;;
5630;SDS011;2837;50.990;7.124;2023-09-08T19:47:06;148.47;;;9.67;;